createdAt,value
2023-01-10T00:01:42.151Z,99235.31
2023-01-10T00:04:10.144Z,99223.94
2023-01-10T00:06:37.621Z,99237.53
2023-01-10T00:09:05.224Z,99244.63
2023-01-10T00:11:51.313Z,99231.06
2023-01-10T00:14:22.023Z,99238.59
2023-01-10T00:16:49.564Z,99228.09
2023-01-10T00:19:17.071Z,99234.41
2023-01-10T00:21:46.115Z,99229.06
2023-01-10T00:24:17.932Z,99216.63
2023-01-10T00:26:51.109Z,99223.16
2023-01-10T00:29:35.380Z,99217.94
2023-01-10T00:32:02.917Z,99213.25
2023-01-10T00:34:34.931Z,99210.69
2023-01-10T00:37:02.431Z,99196.66
2023-01-10T00:39:30.630Z,99189.56
2023-01-10T00:42:16.830Z,99191.19
2023-01-10T00:44:46.834Z,99184.72
2023-01-10T00:47:14.849Z,99174.41
2023-01-10T00:49:42.401Z,99179.63
2023-01-10T00:52:09.946Z,99170.28
2023-01-10T00:54:37.402Z,99170.94
2023-01-10T00:57:05.051Z,99169.13
2023-01-10T00:59:32.586Z,99175.91
2023-01-10T01:02:00.210Z,99176.72
2023-01-10T01:04:27.957Z,99184.13
2023-01-10T01:06:55.418Z,99183.06
2023-01-10T01:09:22.899Z,99182.59
2023-01-10T01:11:50.352Z,99175.19
2023-01-10T01:14:17.806Z,99165.75
2023-01-10T01:16:46.313Z,99169.63
2023-01-10T01:19:13.816Z,99173.28
2023-01-10T01:21:41.809Z,99161.94
2023-01-10T01:24:11.586Z,99151.16
2023-01-10T01:26:39.924Z,99149.09
2023-01-10T01:29:07.331Z,99158.69
2023-01-10T01:31:34.985Z,99156.97
2023-01-10T01:34:02.523Z,99157.59
2023-01-10T01:36:30.251Z,99158.56
2023-01-10T01:38:57.731Z,99156.41
2023-01-10T01:41:43.719Z,99157.78
2023-01-10T01:44:20.364Z,99162.38
2023-01-10T01:47:16.026Z,99148.06
2023-01-10T01:49:46.729Z,99132.44
2023-01-10T01:52:28.135Z,99124.97
2023-01-10T01:55:00.036Z,99108.13
2023-01-10T01:57:28.775Z,99097.94
2023-01-10T01:59:57.161Z,99089.06
2023-01-10T02:02:31.001Z,99088.91
2023-01-10T02:05:08.897Z,99090.38
2023-01-10T02:07:40.851Z,99086.28
2023-01-10T02:10:36.983Z,99100.22
2023-01-10T02:13:07.997Z,99083.63
2023-01-10T02:15:55.464Z,99064.75
2023-01-10T02:18:24.339Z,99068.56
2023-01-10T02:21:31.624Z,99067.31
2023-01-10T02:25:19.812Z,99052.75
2023-01-10T02:28:23.128Z,99052.94
2023-01-10T02:31:11.918Z,99044.69
2023-01-10T02:33:55.645Z,99044.53
2023-01-10T02:36:47.038Z,99024.13
2023-01-10T02:39:28.613Z,99010.00
2023-01-10T02:42:13.909Z,99002.50
2023-01-10T02:44:51.117Z,99007.16
2023-01-10T02:47:18.840Z,99014.59
2023-01-10T02:49:51.906Z,99000.06
2023-01-10T02:52:28.269Z,98993.31
2023-01-10T02:55:01.884Z,99007.22
2023-01-10T02:57:50.049Z,99034.16
2023-01-10T03:00:26.826Z,99020.38
2023-01-10T03:03:33.421Z,99046.09
2023-01-10T03:06:41.111Z,99060.00
2023-01-10T03:09:19.927Z,99044.81
2023-01-10T03:11:53.716Z,99036.13
2023-01-10T03:14:26.290Z,99016.88
2023-01-10T03:17:00.317Z,99004.03
2023-01-10T03:19:38.010Z,99002.09
2023-01-10T03:22:11.296Z,99009.28
2023-01-10T03:24:50.986Z,98997.59
2023-01-10T03:27:26.146Z,99013.94
2023-01-10T03:30:06.551Z,98999.50
2023-01-10T03:32:34.744Z,99008.34
2023-01-10T03:35:04.514Z,99004.56
2023-01-10T03:37:55.403Z,98994.34
2023-01-10T03:41:29.529Z,99005.31
2023-01-10T03:44:44.273Z,98993.88
2023-01-10T03:47:32.607Z,98986.22
2023-01-10T03:50:12.966Z,98988.84
2023-01-10T03:52:42.845Z,98996.78
2023-01-10T03:55:18.543Z,99011.56
2023-01-10T03:57:46.350Z,99015.25
2023-01-10T04:00:16.545Z,99005.44
2023-01-10T04:02:44.540Z,98993.56
2023-01-10T04:05:13.152Z,98993.13
2023-01-10T04:07:40.964Z,98987.53
2023-01-10T04:10:09.602Z,98946.44
2023-01-10T04:12:37.309Z,98948.34
2023-01-10T04:15:07.780Z,98932.19
2023-01-10T04:17:35.219Z,98922.19
2023-01-10T04:20:02.789Z,98926.81
2023-01-10T04:22:30.273Z,98925.69
2023-01-10T04:24:57.697Z,98940.13
2023-01-10T04:27:25.232Z,98933.41
2023-01-10T04:29:53.219Z,98946.84
2023-01-10T04:32:21.745Z,98947.53
2023-01-10T04:34:49.194Z,98972.28
2023-01-10T04:37:16.734Z,98955.81
2023-01-10T04:39:44.299Z,98951.78
2023-01-10T04:42:11.815Z,98958.03
2023-01-10T04:44:39.442Z,98967.97
2023-01-10T04:47:07.182Z,98943.38
2023-01-10T04:49:34.669Z,98938.38
2023-01-10T04:52:02.486Z,98935.94
2023-01-10T04:54:29.988Z,98942.19
2023-01-10T04:56:57.602Z,98947.31
2023-01-10T04:59:25.195Z,98956.47
2023-01-10T05:01:52.682Z,98950.19
2023-01-10T05:04:20.976Z,98938.88
2023-01-10T05:06:49.496Z,98943.34
2023-01-10T05:09:17.047Z,98949.47
2023-01-10T05:11:44.484Z,98952.47
2023-01-10T05:14:11.919Z,98941.06
2023-01-10T05:16:39.412Z,98927.34
2023-01-10T05:19:07.003Z,98924.03
2023-01-10T05:21:34.476Z,98917.34
2023-01-10T05:24:01.977Z,98914.75
2023-01-10T05:26:29.367Z,98918.38
2023-01-10T05:28:56.948Z,98922.53
2023-01-10T05:31:24.496Z,98915.75
2023-01-10T05:33:52.756Z,98908.31
2023-01-10T05:36:20.545Z,98913.50
2023-01-10T05:38:48.354Z,98923.16
2023-01-10T05:41:15.824Z,98933.56
2023-01-10T05:43:43.266Z,98924.88
2023-01-10T05:46:11.480Z,98923.94
2023-01-10T05:48:39.125Z,98898.03
2023-01-10T05:51:06.926Z,98886.19
2023-01-10T05:53:34.417Z,98890.16
2023-01-10T05:56:03.615Z,98901.81
2023-01-10T05:58:31.616Z,98879.59
2023-01-10T06:00:59.633Z,98886.69
2023-01-10T06:03:27.447Z,98890.06
2023-01-10T06:05:58.406Z,98882.34
2023-01-10T06:08:26.438Z,98892.13
2023-01-10T06:10:53.996Z,98897.31
2023-01-10T06:13:21.784Z,98900.78
2023-01-10T06:15:50.018Z,98895.28
2023-01-10T06:18:17.547Z,98905.78
2023-01-10T06:20:45.324Z,98902.78
2023-01-10T06:23:12.947Z,98888.72
2023-01-10T06:25:41.783Z,98899.53
2023-01-10T06:28:11.585Z,98904.94
2023-01-10T06:30:42.124Z,98899.44
2023-01-10T06:33:11.444Z,98895.06
2023-01-10T06:35:39.855Z,98895.28
2023-01-10T06:38:07.586Z,98894.41
2023-01-10T06:40:35.102Z,98899.25
2023-01-10T06:43:02.579Z,98906.28
2023-01-10T06:45:30.455Z,98898.66
2023-01-10T06:47:57.995Z,98887.38
2023-01-10T06:50:26.110Z,98873.22
2023-01-10T06:53:02.942Z,98890.56
2023-01-10T06:55:31.052Z,98896.59
2023-01-10T06:58:01.199Z,98888.16
2023-01-10T07:00:30.221Z,98876.97
2023-01-10T07:03:02.818Z,98873.13
2023-01-10T07:05:30.769Z,98872.34
2023-01-10T07:08:01.211Z,98877.94
2023-01-10T07:10:29.117Z,98877.06
2023-01-10T07:12:56.939Z,98873.50
2023-01-10T07:15:24.551Z,98875.25
2023-01-10T07:17:52.096Z,98870.78
2023-01-10T07:20:20.950Z,98872.47
2023-01-10T07:23:00.413Z,98853.19
2023-01-10T07:25:30.628Z,98859.94
2023-01-10T07:27:58.360Z,98859.66
2023-01-10T07:30:26.171Z,98849.81
2023-01-10T07:32:58.690Z,98853.75
2023-01-10T07:35:26.829Z,98848.56
2023-01-10T07:37:54.395Z,98841.75
2023-01-10T07:40:21.884Z,98835.25
2023-01-10T07:42:50.080Z,98834.22
2023-01-10T07:45:17.635Z,98835.66
2023-01-10T07:47:45.076Z,98836.31
2023-01-10T07:50:12.555Z,98831.59
2023-01-10T07:52:40.050Z,98825.84
2023-01-10T07:55:08.022Z,98822.28
2023-01-10T07:57:35.497Z,98819.88
2023-01-10T08:00:03.708Z,98814.28
2023-01-10T08:02:32.610Z,98798.16
2023-01-10T08:05:01.534Z,98799.16
2023-01-10T08:07:35.143Z,98797.03
2023-01-10T08:10:03.251Z,98790.28
2023-01-10T08:12:30.761Z,98789.69
2023-01-10T08:14:58.287Z,98784.41
2023-01-10T08:17:26.210Z,98771.03
2023-01-10T08:19:53.681Z,98763.34
2023-01-10T08:22:21.266Z,98759.69
2023-01-10T08:24:48.812Z,98760.44
2023-01-10T08:27:16.424Z,98752.72
2023-01-10T08:29:43.865Z,98755.03
2023-01-10T08:32:12.045Z,98759.84
2023-01-10T08:34:39.656Z,98781.66
2023-01-10T08:37:07.198Z,98774.72
2023-01-10T08:39:35.415Z,98774.09
2023-01-10T08:42:03.246Z,98780.69
2023-01-10T08:44:30.795Z,98770.47
2023-01-10T08:46:58.422Z,98760.94
2023-01-10T08:49:25.860Z,98760.09
2023-01-10T08:51:53.326Z,98753.31
2023-01-10T08:54:20.812Z,98751.84
2023-01-10T08:56:49.532Z,98748.22
2023-01-10T08:59:17.345Z,98743.41
2023-01-10T09:01:45.029Z,98738.19
2023-01-10T09:04:12.815Z,98738.00
2023-01-10T09:06:40.263Z,98733.88
2023-01-10T09:09:08.084Z,98726.16
2023-01-10T09:11:35.626Z,98725.44
2023-01-10T09:14:03.105Z,98721.13
2023-01-10T09:16:30.697Z,98720.19
2023-01-10T09:18:58.342Z,98723.38
2023-01-10T09:21:27.192Z,98715.34
2023-01-10T09:23:54.920Z,98709.09
2023-01-10T09:26:22.482Z,98709.31
2023-01-10T09:28:50.038Z,98707.03
2023-01-10T09:31:17.585Z,98698.03
2023-01-10T09:33:47.756Z,98698.34
2023-01-10T09:36:15.840Z,98691.38
2023-01-10T09:38:44.319Z,98684.47
2023-01-10T09:41:54.779Z,98679.31
2023-01-10T09:44:44.189Z,98688.31
2023-01-10T09:47:45.623Z,98671.34
2023-01-10T09:50:41.575Z,98660.09
2023-01-10T09:53:21.699Z,98661.63
2023-01-10T09:55:59.924Z,98648.97
2023-01-10T09:58:32.078Z,98638.50
2023-01-10T10:01:10.972Z,98638.00
2023-01-10T10:04:11.771Z,98640.16
2023-01-10T10:06:39.746Z,98640.41
2023-01-10T10:09:11.509Z,98623.88
2023-01-10T10:12:16.568Z,98612.53
2023-01-10T10:15:33.971Z,98618.53
2023-01-10T10:18:07.201Z,98613.19
2023-01-10T10:20:53.783Z,98616.72
2023-01-10T10:24:26.853Z,98614.94
2023-01-10T10:27:41.160Z,98607.91
2023-01-10T10:30:36.057Z,98602.91
2023-01-10T10:33:30.709Z,98586.53
2023-01-10T10:36:05.331Z,98574.81
2023-01-10T10:38:39.584Z,98565.31
2023-01-10T10:41:29.033Z,98557.28
2023-01-10T10:44:04.299Z,98543.38
2023-01-10T10:46:33.127Z,98545.75
2023-01-10T10:49:49.609Z,98542.31
2023-01-10T10:52:27.883Z,98537.06
2023-01-10T10:54:57.051Z,98531.66
2023-01-10T10:57:59.827Z,98532.75
2023-01-10T11:00:30.810Z,98528.53
2023-01-10T11:03:13.242Z,98528.66
2023-01-10T11:05:47.916Z,98526.13
2023-01-10T11:08:20.733Z,98518.69
2023-01-10T11:10:54.303Z,98512.97
2023-01-10T11:13:49.369Z,98510.44
2023-01-10T11:16:33.200Z,98504.13
2023-01-10T11:19:20.639Z,98514.03
2023-01-10T11:22:04.868Z,98507.44
2023-01-10T11:25:03.589Z,98512.13
2023-01-10T11:27:52.527Z,98494.81
2023-01-10T11:30:34.531Z,98476.16
2023-01-10T11:33:06.311Z,98478.28
2023-01-10T11:35:37.810Z,98472.81
2023-01-10T11:38:16.959Z,98468.50
2023-01-10T11:41:13.741Z,98469.88
2023-01-10T11:43:42.185Z,98462.41
2023-01-10T11:46:21.588Z,98453.72
2023-01-10T11:49:09.699Z,98452.19
2023-01-10T11:51:47.656Z,98454.13
2023-01-10T11:54:25.660Z,98447.50
2023-01-10T11:57:06.880Z,98430.91
2023-01-10T11:59:34.752Z,98434.19
2023-01-10T12:02:24.987Z,98458.44
2023-01-10T12:04:54.840Z,98448.03
2023-01-10T12:07:22.625Z,98454.31
2023-01-10T12:10:04.014Z,98444.00
2023-01-10T12:12:35.085Z,98424.69
2023-01-10T12:15:33.571Z,98440.31
2023-01-10T12:18:04.273Z,98440.41
2023-01-10T12:20:46.932Z,98447.56
2023-01-10T12:23:22.402Z,98449.31
2023-01-10T12:25:53.242Z,98447.56
2023-01-10T12:28:30.073Z,98443.13
2023-01-10T12:31:02.331Z,98450.84
2023-01-10T12:33:37.190Z,98448.13
2023-01-10T12:36:25.757Z,98454.75
2023-01-10T12:39:10.594Z,98456.25
2023-01-10T12:42:35.204Z,98465.88
2023-01-10T12:45:23.964Z,98469.31
2023-01-10T12:48:06.846Z,98476.63
2023-01-10T12:50:45.491Z,98475.84
2023-01-10T12:53:24.027Z,98489.63
2023-01-10T12:55:56.893Z,98492.84
2023-01-10T12:59:11.393Z,98488.97
2023-01-10T13:01:45.278Z,98480.88
2023-01-10T13:04:22.374Z,98473.16
2023-01-10T13:07:12.762Z,98455.19
2023-01-10T13:09:43.862Z,98426.44
2023-01-10T13:12:41.088Z,98401.44
2023-01-10T13:15:27.937Z,98391.38
2023-01-10T13:18:17.333Z,98404.72
2023-01-10T13:20:45.944Z,98427.28
2023-01-10T13:23:23.285Z,98430.94
2023-01-10T13:26:10.481Z,98416.94
2023-01-10T13:28:54.610Z,98409.91
2023-01-10T13:31:31.685Z,98417.44
2023-01-10T13:34:14.385Z,98420.03
2023-01-10T13:36:56.937Z,98433.66
2023-01-10T13:39:34.869Z,98426.00
2023-01-10T13:42:20.765Z,98436.91
2023-01-10T13:45:03.506Z,98442.53
2023-01-10T13:47:40.120Z,98472.97
2023-01-10T13:50:25.685Z,98489.91
2023-01-10T13:53:15.659Z,98493.28
2023-01-10T13:55:53.792Z,98500.53
2023-01-10T13:58:42.727Z,98531.34
2023-01-10T14:01:46.662Z,98535.94
2023-01-10T14:04:47.560Z,98508.47
2023-01-10T14:07:32.133Z,98487.56
2023-01-10T14:10:21.675Z,98477.00
2023-01-10T14:12:56.611Z,98462.09
2023-01-10T14:15:32.292Z,98438.81
2023-01-10T14:18:39.280Z,98419.53
2023-01-10T14:21:09.756Z,98439.00
2023-01-10T14:23:43.662Z,98459.50
2023-01-10T14:26:30.075Z,98473.34
2023-01-10T14:28:59.670Z,98489.75
2023-01-10T14:31:28.991Z,98481.63
2023-01-10T14:34:00.597Z,98476.56
2023-01-10T14:36:48.374Z,98476.25
2023-01-10T14:39:36.302Z,98486.53
2023-01-10T14:42:08.213Z,98504.34
2023-01-10T14:44:51.299Z,98499.44
2023-01-10T14:47:34.433Z,98482.84
2023-01-10T14:50:22.901Z,98475.31
2023-01-10T14:52:50.408Z,98504.97
2023-01-10T14:55:22.647Z,98503.28
2023-01-10T14:58:02.842Z,98485.75
2023-01-10T15:00:34.530Z,98477.53
2023-01-10T15:03:04.251Z,98475.34
2023-01-10T15:05:38.456Z,98480.13
2023-01-10T15:08:35.924Z,98513.81
2023-01-10T15:11:08.158Z,98544.03
2023-01-10T15:13:50.713Z,98536.81
2023-01-10T15:16:23.114Z,98534.56
2023-01-10T15:18:51.555Z,98526.56
2023-01-10T15:21:24.263Z,98515.09
2023-01-10T15:23:52.067Z,98524.88
2023-01-10T15:26:40.661Z,98535.06
2023-01-10T15:29:19.472Z,98540.09
2023-01-10T15:31:47.577Z,98543.28
2023-01-10T15:34:21.668Z,98536.53
2023-01-10T15:36:55.994Z,98505.72
2023-01-10T15:39:29.790Z,98507.69
2023-01-10T15:42:03.720Z,98523.16
2023-01-10T15:44:37.056Z,98525.91
2023-01-10T15:47:05.883Z,98538.59
2023-01-10T15:49:33.786Z,98552.59
2023-01-10T15:52:03.981Z,98563.47
2023-01-10T15:54:32.872Z,98574.84
2023-01-10T15:57:14.978Z,98580.84
2023-01-10T15:59:48.126Z,98571.16
2023-01-10T16:02:34.287Z,98570.75
2023-01-10T16:05:22.108Z,98595.88
2023-01-10T16:07:49.951Z,98599.41
2023-01-10T16:10:45.415Z,98589.75
2023-01-10T16:13:31.612Z,98590.38
2023-01-10T16:16:04.930Z,98591.13
2023-01-10T16:18:32.500Z,98594.06
2023-01-10T16:21:03.758Z,98587.56
2023-01-10T16:23:36.456Z,98585.28
2023-01-10T16:26:24.832Z,98584.81
2023-01-10T16:28:52.275Z,98590.16
2023-01-10T16:31:20.851Z,98585.59
2023-01-10T16:33:53.299Z,98578.41
2023-01-10T16:36:21.487Z,98565.09
2023-01-10T16:38:50.203Z,98565.09
2023-01-10T16:41:38.214Z,98582.25
2023-01-10T16:44:05.751Z,98587.47
2023-01-10T16:46:36.881Z,98585.13
2023-01-10T16:49:08.011Z,98594.97
2023-01-10T16:51:41.129Z,98585.44
2023-01-10T16:54:26.567Z,98594.97
2023-01-10T16:56:54.180Z,98611.25
2023-01-10T16:59:23.894Z,98618.94
2023-01-10T17:01:58.567Z,98623.97
2023-01-10T17:04:35.949Z,98619.66
2023-01-10T17:07:03.629Z,98622.72
2023-01-10T17:09:31.951Z,98621.00
2023-01-10T17:12:11.235Z,98631.34
2023-01-10T17:14:39.965Z,98620.84
2023-01-10T17:17:07.503Z,98625.03
2023-01-10T17:19:37.251Z,98617.47
2023-01-10T17:22:05.642Z,98631.59
2023-01-10T17:24:33.214Z,98625.53
2023-01-10T17:27:02.769Z,98627.19
2023-01-10T17:29:34.064Z,98641.88
2023-01-10T17:32:02.004Z,98650.63
2023-01-10T17:34:37.192Z,98653.50
2023-01-10T17:37:08.398Z,98641.44
2023-01-10T17:39:37.928Z,98645.22
2023-01-10T17:42:08.302Z,98659.38
2023-01-10T17:44:37.031Z,98673.50
2023-01-10T17:47:10.898Z,98660.66
2023-01-10T17:49:38.559Z,98662.03
2023-01-10T17:52:09.021Z,98661.53
2023-01-10T17:54:36.684Z,98664.25
2023-01-10T17:57:06.511Z,98671.63
2023-01-10T17:59:36.890Z,98673.31
2023-01-10T18:02:11.208Z,98675.91
2023-01-10T18:04:40.391Z,98680.22
2023-01-10T18:07:09.466Z,98677.16
2023-01-10T18:09:40.632Z,98678.38
2023-01-10T18:12:14.313Z,98679.91
2023-01-10T18:14:43.452Z,98680.84
2023-01-10T18:17:16.626Z,98677.00
2023-01-10T18:19:53.211Z,98684.19
2023-01-10T18:22:40.939Z,98700.88
2023-01-10T18:25:09.830Z,98711.38
2023-01-10T18:27:42.934Z,98716.75
2023-01-10T18:30:16.186Z,98728.44
2023-01-10T18:32:46.081Z,98725.34
2023-01-10T18:35:14.321Z,98731.28
2023-01-10T18:37:45.830Z,98724.06
2023-01-10T18:40:14.847Z,98741.44
2023-01-10T18:42:44.750Z,98734.50
2023-01-10T18:45:12.668Z,98739.09
2023-01-10T18:47:40.583Z,98747.03
2023-01-10T18:50:14.310Z,98742.41
2023-01-10T18:52:43.525Z,98741.88
2023-01-10T18:55:12.629Z,98754.91
2023-01-10T18:57:55.895Z,98743.28
2023-01-10T19:00:26.267Z,98745.03
2023-01-10T19:02:56.350Z,98756.47
2023-01-10T19:05:30.890Z,98755.69
2023-01-10T19:08:00.247Z,98752.50
2023-01-10T19:10:32.638Z,98756.66
2023-01-10T19:13:12.867Z,98760.19
2023-01-10T19:15:42.833Z,98757.88
2023-01-10T19:18:15.493Z,98755.28
2023-01-10T19:20:45.647Z,98756.41
2023-01-10T19:23:13.691Z,98745.28
2023-01-10T19:25:46.723Z,98759.03
2023-01-10T19:28:18.446Z,98763.63
2023-01-10T19:31:03.475Z,98757.69
2023-01-10T19:33:40.410Z,98764.28
2023-01-10T19:36:12.496Z,98769.69
2023-01-10T19:38:41.072Z,98771.09
2023-01-10T19:41:11.533Z,98773.38
2023-01-10T19:43:43.658Z,98776.47
2023-01-10T19:46:18.721Z,98785.53
2023-01-10T19:48:48.243Z,98780.81
2023-01-10T19:51:22.860Z,98784.94
2023-01-10T19:53:52.182Z,98785.41
2023-01-10T19:56:25.567Z,98795.72
2023-01-10T19:59:01.712Z,98794.53
2023-01-10T20:01:32.911Z,98794.31
2023-01-10T20:04:07.393Z,98815.72
2023-01-10T20:06:39.873Z,98835.97
2023-01-10T20:09:09.409Z,98845.47
2023-01-10T20:11:43.769Z,98843.69
2023-01-10T20:14:26.092Z,98848.56
2023-01-10T20:16:54.364Z,98867.63
2023-01-10T20:19:23.175Z,98872.75
2023-01-10T20:21:51.112Z,98875.53
2023-01-10T20:24:21.225Z,98868.69
2023-01-10T20:26:50.950Z,98872.34
2023-01-10T20:29:20.328Z,98884.66
2023-01-10T20:31:53.823Z,98888.44
2023-01-10T20:34:23.394Z,98889.59
2023-01-10T20:36:53.125Z,98892.06
2023-01-10T20:39:27.911Z,98879.81
2023-01-10T20:41:56.160Z,98861.44
2023-01-10T20:44:30.841Z,98859.00
2023-01-10T20:47:00.595Z,98856.81
2023-01-10T20:49:28.695Z,98873.41
2023-01-10T20:51:56.828Z,98872.38
2023-01-10T20:54:25.677Z,98882.47
2023-01-10T20:56:53.250Z,98884.81
2023-01-10T20:59:25.944Z,98886.19
2023-01-10T21:01:55.048Z,98894.97
2023-01-10T21:04:22.591Z,98895.22
2023-01-10T21:06:50.471Z,98893.72
2023-01-10T21:09:20.543Z,98890.09
2023-01-10T21:12:04.137Z,98894.50
2023-01-10T21:14:35.623Z,98904.75
2023-01-10T21:17:03.079Z,98912.03
2023-01-10T21:19:30.671Z,98929.78
2023-01-10T21:21:58.668Z,98939.72
2023-01-10T21:24:26.309Z,98937.75
2023-01-10T21:26:54.855Z,98935.16
2023-01-10T21:29:22.713Z,98932.03
2023-01-10T21:31:54.928Z,98943.03
2023-01-10T21:34:22.486Z,98942.28
2023-01-10T21:36:50.504Z,98955.25
2023-01-10T21:39:18.373Z,98951.97
2023-01-10T21:42:04.703Z,98942.03
2023-01-10T21:44:32.192Z,98932.75
2023-01-10T21:46:59.676Z,98940.16
2023-01-10T21:49:27.288Z,98931.56
2023-01-10T21:51:54.907Z,98938.97
2023-01-10T21:54:22.555Z,98938.88
2023-01-10T21:56:50.218Z,98941.59
2023-01-10T21:59:17.955Z,98956.34
2023-01-10T22:01:46.344Z,98967.41
2023-01-10T22:04:16.353Z,98964.81
2023-01-10T22:06:44.820Z,98957.03
2023-01-10T22:09:12.324Z,98954.38
2023-01-10T22:11:40.266Z,98944.91
2023-01-10T22:14:07.806Z,98948.06
2023-01-10T22:16:35.400Z,98952.34
2023-01-10T22:19:02.886Z,98948.56
2023-01-10T22:21:30.411Z,98949.44
2023-01-10T22:23:57.877Z,98960.03
2023-01-10T22:26:27.490Z,98945.44
2023-01-10T22:28:55.439Z,98953.16
2023-01-10T22:31:23.048Z,98961.06
2023-01-10T22:33:50.609Z,98955.66
2023-01-10T22:36:19.699Z,98962.03
2023-01-10T22:38:50.008Z,98964.03
2023-01-10T22:41:26.988Z,98964.88
2023-01-10T22:43:55.837Z,98982.44
2023-01-10T22:46:24.889Z,98983.78
2023-01-10T22:48:53.028Z,98986.59
2023-01-10T22:51:22.699Z,98981.91
2023-01-10T22:53:55.997Z,98980.88
2023-01-10T22:56:26.712Z,98976.81
2023-01-10T22:58:54.291Z,98975.78
2023-01-10T23:01:24.588Z,98984.25
2023-01-10T23:03:52.228Z,98982.28
2023-01-10T23:06:20.444Z,98983.78
2023-01-10T23:08:48.700Z,98998.25
2023-01-10T23:11:19.638Z,98985.13
2023-01-10T23:13:48.107Z,98979.66
2023-01-10T23:16:29.745Z,98989.72
2023-01-10T23:18:58.821Z,98983.00
2023-01-10T23:21:29.278Z,98976.56
2023-01-10T23:23:57.231Z,98984.19
2023-01-10T23:26:25.328Z,98982.84
2023-01-10T23:28:52.897Z,98979.25
2023-01-10T23:31:29.316Z,98988.69
2023-01-10T23:33:57.407Z,98998.88
2023-01-10T23:36:25.440Z,99000.97
2023-01-10T23:38:53.106Z,99004.53
2023-01-10T23:41:21.281Z,99007.34
2023-01-10T23:43:50.489Z,99010.06
2023-01-10T23:46:18.951Z,99013.28
2023-01-10T23:48:48.345Z,99017.25
2023-01-10T23:51:16.001Z,99015.97
2023-01-10T23:53:43.671Z,99017.34
2023-01-10T23:56:14.574Z,99019.28
2023-01-10T23:58:42.276Z,99019.59
